Airfield :
LOGIN :

Register | Disclaimer

   EN    FR    IT 

 










Legend :    VFR   Marginal VFR   IFR   Intensive IFR   Very Intensive IFR
Visi :
Ceiling :
>= 8 km
>= 3000ft
5 to 8 km
1000 to 3000 ft
1500m to 5 km
500 to 1000 ft
800 to 1500m
200 to 500 ft
< 800m
< 200 ft
Symbols :   Thunderstorms  Fog  Heavy snow  Heavy precipitations  Wind > 20 kt
SIGMETs :     Misc.  Thunderstorms  Icing  Turbulence  Mountain Waves  Volcanic Ashes






- Airport Elevation : 1708 ft
- IATA code : SJJ


LQSA - Sarajevo

CURRENT METAR :
  • 291200Z VRB03KT 9999 BKN060 19/14 Q1005 NOSIG

EXPIRED METARs :
  • 291130Z VRB02KT 9999 SCT050 20/15 Q1005 NOSIG
  • 291100Z 30004KT 280V020 9999 -RA FEW025 BKN055 19/15 Q1005 NOSIG
  • 291030Z VRB03KT 9999 FEW050 SCT060 21/14 Q1005 NOSIG
  • 291000Z 24003KT 200V310 9999 BKN050 20/15 Q1005 NOSIG
  • 290930Z VRB02KT 9999 SCT055 20/15 Q1005 NOSIG

TAF TAF LQSA
Valid from the 29 at 12:00 until the 30 at 12:00 UTC


291100Z 2912/3012 VRB06KT 9999 SCT060 TX22/2913Z TN12/3004Z
PROB30
TEMPO 2912/2921 19016KT
TEMPO 2921/3011 SHRA FEW035TCU SCT040
PROB30
TEMPO 3008/3010 21016KT 5000 TSRA FEW030CB SCT040



MET'MAP, your aeronautical weather chart ! - Copyright ORBIFLY December 2007 - Disclaimer

ORBIFLY MET'MAP TEAM :

Programming & Development : Alexandra Zaïnal
Original concept : Baudouin d'Aumeries
Technical & hardware support : Manuel Goepfert
Assistance : Marc-Olivier Méhu




SOURCES & CREDITS :

   NOAA